sensor_id;sensor_type;location;lat;lon;timestamp;P1;durP1;ratioP1;P2;durP2;ratioP2
48679;SDS011;34475;51.658;5.634;2023-04-02T00:03:03;1.5;;;1.5;;
48679;SDS011;34475;51.658;5.634;2023-04-02T00:04:03;1.5;;;1.5;;
48679;SDS011;34475;51.658;5.634;2023-04-02T00:06:01;1.4;;;1.4;;
48679;SDS011;34475;51.658;5.634;2023-04-02T00:07:22;1.4;;;1.4;;
48679;SDS011;34475;51.658;5.634;2023-04-02T00:08:03;1.4;;;1.4;;
48679;SDS011;34475;51.658;5.634;2023-04-02T00:09:03;1.4;;;1.4;;
48679;SDS011;34475;51.658;5.634;2023-04-02T00:10:01;1.4;;;1.4;;
48679;SDS011;34475;51.658;5.634;2023-04-02T00:11:01;1.4;;;1.4;;
48679;SDS011;34475;51.658;5.634;2023-04-02T00:12:15;1.4;;;1.4;;
48679;SDS011;34475;51.658;5.634;2023-04-02T00:13:06;1.4;;;1.4;;
48679;SDS011;34475;51.658;5.634;2023-04-02T00:14:03;1.4;;;1.4;;
48679;SDS011;34475;51.658;5.634;2023-04-02T00:15:00;1.4;;;1.4;;
48679;SDS011;34475;51.658;5.634;2023-04-02T00:16:02;1.4;;;1.4;;
48679;SDS011;34475;51.658;5.634;2023-04-02T00:17:03;1.4;;;1.4;;
48679;SDS011;34475;51.658;5.634;2023-04-02T00:18:01;1.4;;;1.4;;
48679;SDS011;34475;51.658;5.634;2023-04-02T00:19:03;1.4;;;1.4;;
48679;SDS011;34475;51.658;5.634;2023-04-02T00:20:05;1.4;;;1.4;;
48679;SDS011;34475;51.658;5.634;2023-04-02T00:22:02;1.4;;;1.4;;
48679;SDS011;34475;51.658;5.634;2023-04-02T00:23:01;1.4;;;1.4;;
48679;SDS011;34475;51.658;5.634;2023-04-02T00:24:02;1.4;;;1.4;;
48679;SDS011;34475;51.658;5.634;2023-04-02T00:25:07;1.3;;;1.3;;
48679;SDS011;34475;51.658;5.634;2023-04-02T00:26:00;1.3;;;1.3;;
48679;SDS011;34475;51.658;5.634;2023-04-02T00:27:00;1.3;;;1.3;;
48679;SDS011;34475;51.658;5.634;2023-04-02T00:28:01;1.3;;;1.3;;
48679;SDS011;34475;51.658;5.634;2023-04-02T00:29:02;1.3;;;1.3;;
48679;SDS011;34475;51.658;5.634;2023-04-02T00:30:00;1.3;;;1.3;;
48679;SDS011;34475;51.658;5.634;2023-04-02T00:31:00;1.3;;;1.3;;
48679;SDS011;34475;51.658;5.634;2023-04-02T00:32:00;1.3;;;1.3;;
48679;SDS011;34475;51.658;5.634;2023-04-02T00:33:00;1.3;;;1.3;;
48679;SDS011;34475;51.658;5.634;2023-04-02T00:34:02;1.3;;;1.3;;
48679;SDS011;34475;51.658;5.634;2023-04-02T00:35:00;1.3;;;1.3;;
48679;SDS011;34475;51.658;5.634;2023-04-02T00:36:05;1.3;;;1.3;;
48679;SDS011;34475;51.658;5.634;2023-04-02T00:37:01;1.3;;;1.3;;
48679;SDS011;34475;51.658;5.634;2023-04-02T00:38:00;1.3;;;1.3;;
48679;SDS011;34475;51.658;5.634;2023-04-02T00:39:02;1.3;;;1.3;;
48679;SDS011;34475;51.658;5.634;2023-04-02T00:40:12;1.3;;;1.3;;
48679;SDS011;34475;51.658;5.634;2023-04-02T00:41:03;1.3;;;1.3;;
48679;SDS011;34475;51.658;5.634;2023-04-02T00:42:04;1.3;;;1.3;;
48679;SDS011;34475;51.658;5.634;2023-04-02T00:43:03;1.3;;;1.3;;
48679;SDS011;34475;51.658;5.634;2023-04-02T00:44:01;1.3;;;1.3;;
48679;SDS011;34475;51.658;5.634;2023-04-02T00:45:01;1.7;;;1.7;;
48679;SDS011;34475;51.658;5.634;2023-04-02T00:46:03;1.7;;;1.7;;
48679;SDS011;34475;51.658;5.634;2023-04-02T00:47:23;1.7;;;1.7;;
48679;SDS011;34475;51.658;5.634;2023-04-02T00:49:09;1.7;;;1.7;;
48679;SDS011;34475;51.658;5.634;2023-04-02T00:51:13;1.7;;;1.7;;
48679;SDS011;34475;51.658;5.634;2023-04-02T00:52:04;1.7;;;1.7;;
48679;SDS011;34475;51.658;5.634;2023-04-02T00:53:06;1.7;;;1.7;;
48679;SDS011;34475;51.658;5.634;2023-04-02T00:54:04;1.7;;;1.7;;
48679;SDS011;34475;51.658;5.634;2023-04-02T00:56:01;1.7;;;1.7;;
48679;SDS011;34475;51.658;5.634;2023-04-02T00:57:00;1.7;;;1.7;;
48679;SDS011;34475;51.658;5.634;2023-04-02T00:58:01;1.7;;;1.7;;
48679;SDS011;34475;51.658;5.634;2023-04-02T00:59:00;1.7;;;1.7;;
48679;SDS011;34475;51.658;5.634;2023-04-02T01:01:01;1.7;;;1.7;;
48679;SDS011;34475;51.658;5.634;2023-04-02T01:04:02;1.7;;;1.7;;
48679;SDS011;34475;51.658;5.634;2023-04-02T01:05:19;1.5;;;1.5;;
48679;SDS011;34475;51.658;5.634;2023-04-02T01:06:10;1.5;;;1.5;;
48679;SDS011;34475;51.658;5.634;2023-04-02T01:07:04;1.5;;;1.5;;
48679;SDS011;34475;51.658;5.634;2023-04-02T01:08:10;1.5;;;1.5;;
48679;SDS011;34475;51.658;5.634;2023-04-02T01:09:11;1.5;;;1.5;;
48679;SDS011;34475;51.658;5.634;2023-04-02T01:10:11;1.5;;;1.5;;
48679;SDS011;34475;51.658;5.634;2023-04-02T01:11:10;1.5;;;1.5;;
48679;SDS011;34475;51.658;5.634;2023-04-02T01:15:12;1.5;;;1.5;;
48679;SDS011;34475;51.658;5.634;2023-04-02T01:16:15;1.5;;;1.5;;
48679;SDS011;34475;51.658;5.634;2023-04-02T01:17:09;1.5;;;1.5;;
48679;SDS011;34475;51.658;5.634;2023-04-02T01:18:16;1.5;;;1.5;;
48679;SDS011;34475;51.658;5.634;2023-04-02T01:22:13;1.5;;;1.5;;
48679;SDS011;34475;51.658;5.634;2023-04-02T01:23:17;1.5;;;1.5;;
48679;SDS011;34475;51.658;5.634;2023-04-02T01:24:01;1.5;;;1.5;;
48679;SDS011;34475;51.658;5.634;2023-04-02T01:25:03;2.0;;;2.0;;
48679;SDS011;34475;51.658;5.634;2023-04-02T01:26:13;2.0;;;2.0;;
48679;SDS011;34475;51.658;5.634;2023-04-02T01:27:02;2.0;;;2.0;;
48679;SDS011;34475;51.658;5.634;2023-04-02T01:30:03;2.0;;;2.0;;
48679;SDS011;34475;51.658;5.634;2023-04-02T01:31:01;2.0;;;2.0;;
48679;SDS011;34475;51.658;5.634;2023-04-02T01:32:04;2.0;;;2.0;;
48679;SDS011;34475;51.658;5.634;2023-04-02T01:33:00;2.0;;;2.0;;
48679;SDS011;34475;51.658;5.634;2023-04-02T01:34:03;2.0;;;2.0;;
48679;SDS011;34475;51.658;5.634;2023-04-02T01:35:00;2.0;;;2.0;;
48679;SDS011;34475;51.658;5.634;2023-04-02T01:38:11;2.0;;;2.0;;
48679;SDS011;34475;51.658;5.634;2023-04-02T01:40:20;2.0;;;2.0;;
48679;SDS011;34475;51.658;5.634;2023-04-02T01:41:11;2.0;;;2.0;;
48679;SDS011;34475;51.658;5.634;2023-04-02T01:44:06;2.0;;;2.0;;
48679;SDS011;34475;51.658;5.634;2023-04-02T01:45:07;1.7;;;1.7;;
48679;SDS011;34475;51.658;5.634;2023-04-02T01:46:05;1.7;;;1.7;;
48679;SDS011;34475;51.658;5.634;2023-04-02T01:47:02;1.7;;;1.7;;
48679;SDS011;34475;51.658;5.634;2023-04-02T01:48:15;1.7;;;1.7;;
48679;SDS011;34475;51.658;5.634;2023-04-02T01:49:08;1.7;;;1.7;;
48679;SDS011;34475;51.658;5.634;2023-04-02T01:50:04;1.7;;;1.7;;
48679;SDS011;34475;51.658;5.634;2023-04-02T01:51:06;1.7;;;1.7;;
48679;SDS011;34475;51.658;5.634;2023-04-02T01:52:00;1.7;;;1.7;;
48679;SDS011;34475;51.658;5.634;2023-04-02T01:53:03;1.7;;;1.7;;
48679;SDS011;34475;51.658;5.634;2023-04-02T01:54:03;1.7;;;1.7;;
48679;SDS011;34475;51.658;5.634;2023-04-02T01:55:00;1.7;;;1.7;;
48679;SDS011;34475;51.658;5.634;2023-04-02T01:56:01;1.7;;;1.7;;
48679;SDS011;34475;51.658;5.634;2023-04-02T01:57:00;1.7;;;1.7;;
48679;SDS011;34475;51.658;5.634;2023-04-02T01:58:02;1.7;;;1.7;;
48679;SDS011;34475;51.658;5.634;2023-04-02T01:59:02;1.7;;;1.7;;
48679;SDS011;34475;51.658;5.634;2023-04-02T02:00:01;1.7;;;1.7;;
48679;SDS011;34475;51.658;5.634;2023-04-02T02:01:03;1.7;;;1.7;;
48679;SDS011;34475;51.658;5.634;2023-04-02T02:02:03;1.7;;;1.7;;
48679;SDS011;34475;51.658;5.634;2023-04-02T02:03:01;1.7;;;1.7;;
48679;SDS011;34475;51.658;5.634;2023-04-02T02:04:01;1.7;;;1.7;;
48679;SDS011;34475;51.658;5.634;2023-04-02T02:05:00;1.7;;;1.7;;
48679;SDS011;34475;51.658;5.634;2023-04-02T02:06:01;1.7;;;1.7;;
48679;SDS011;34475;51.658;5.634;2023-04-02T02:07:01;1.7;;;1.7;;
48679;SDS011;34475;51.658;5.634;2023-04-02T02:08:01;1.7;;;1.7;;
48679;SDS011;34475;51.658;5.634;2023-04-02T02:09:04;1.7;;;1.7;;
48679;SDS011;34475;51.658;5.634;2023-04-02T02:10:01;1.7;;;1.7;;
48679;SDS011;34475;51.658;5.634;2023-04-02T02:11:01;1.7;;;1.7;;
48679;SDS011;34475;51.658;5.634;2023-04-02T02:12:02;1.7;;;1.7;;
48679;SDS011;34475;51.658;5.634;2023-04-02T02:13:00;1.7;;;1.7;;
48679;SDS011;34475;51.658;5.634;2023-04-02T02:14:04;1.7;;;1.7;;
48679;SDS011;34475;51.658;5.634;2023-04-02T02:15:00;1.7;;;1.7;;
48679;SDS011;34475;51.658;5.634;2023-04-02T02:16:02;1.7;;;1.7;;
48679;SDS011;34475;51.658;5.634;2023-04-02T02:17:01;1.7;;;1.7;;
48679;SDS011;34475;51.658;5.634;2023-04-02T02:18:03;1.7;;;1.7;;
48679;SDS011;34475;51.658;5.634;2023-04-02T02:19:02;1.7;;;1.7;;
48679;SDS011;34475;51.658;5.634;2023-04-02T02:20:01;1.7;;;1.7;;
48679;SDS011;34475;51.658;5.634;2023-04-02T02:21:03;1.7;;;1.7;;
48679;SDS011;34475;51.658;5.634;2023-04-02T02:23:01;1.7;;;1.7;;
48679;SDS011;34475;51.658;5.634;2023-04-02T02:24:00;2.0;;;2.0;;
48679;SDS011;34475;51.658;5.634;2023-04-02T02:25:05;2.0;;;2.0;;
48679;SDS011;34475;51.658;5.634;2023-04-02T02:26:00;2.0;;;2.0;;
48679;SDS011;34475;51.658;5.634;2023-04-02T02:28:13;2.0;;;2.0;;
48679;SDS011;34475;51.658;5.634;2023-04-02T02:29:02;2.0;;;2.0;;
48679;SDS011;34475;51.658;5.634;2023-04-02T02:30:10;2.0;;;2.0;;
48679;SDS011;34475;51.658;5.634;2023-04-02T02:31:04;2.0;;;2.0;;
48679;SDS011;34475;51.658;5.634;2023-04-02T02:32:01;2.0;;;2.0;;
48679;SDS011;34475;51.658;5.634;2023-04-02T02:33:06;2.0;;;2.0;;
48679;SDS011;34475;51.658;5.634;2023-04-02T02:34:06;2.0;;;2.0;;
48679;SDS011;34475;51.658;5.634;2023-04-02T02:35:11;2.0;;;2.0;;
48679;SDS011;34475;51.658;5.634;2023-04-02T02:36:06;2.0;;;2.0;;
48679;SDS011;34475;51.658;5.634;2023-04-02T02:37:05;2.0;;;2.0;;
48679;SDS011;34475;51.658;5.634;2023-04-02T02:39:04;2.0;;;2.0;;
48679;SDS011;34475;51.658;5.634;2023-04-02T02:40:04;2.0;;;2.0;;
48679;SDS011;34475;51.658;5.634;2023-04-02T02:41:05;2.0;;;2.0;;
48679;SDS011;34475;51.658;5.634;2023-04-02T02:42:04;2.0;;;2.0;;
48679;SDS011;34475;51.658;5.634;2023-04-02T02:43:02;2.0;;;2.0;;
48679;SDS011;34475;51.658;5.634;2023-04-02T02:44:09;1.8;;;1.8;;
48679;SDS011;34475;51.658;5.634;2023-04-02T02:45:02;1.8;;;1.8;;
48679;SDS011;34475;51.658;5.634;2023-04-02T02:46:02;1.8;;;1.8;;
48679;SDS011;34475;51.658;5.634;2023-04-02T02:47:01;1.8;;;1.8;;
48679;SDS011;34475;51.658;5.634;2023-04-02T02:48:01;1.8;;;1.8;;
48679;SDS011;34475;51.658;5.634;2023-04-02T02:49:03;1.8;;;1.8;;
48679;SDS011;34475;51.658;5.634;2023-04-02T02:50:06;1.8;;;1.8;;
48679;SDS011;34475;51.658;5.634;2023-04-02T02:51:05;1.8;;;1.8;;
48679;SDS011;34475;51.658;5.634;2023-04-02T02:53:07;1.8;;;1.8;;
48679;SDS011;34475;51.658;5.634;2023-04-02T02:54:01;1.8;;;1.8;;
48679;SDS011;34475;51.658;5.634;2023-04-02T02:55:04;1.8;;;1.8;;
48679;SDS011;34475;51.658;5.634;2023-04-02T02:56:01;1.8;;;1.8;;
48679;SDS011;34475;51.658;5.634;2023-04-02T02:57:04;1.8;;;1.8;;
48679;SDS011;34475;51.658;5.634;2023-04-02T02:58:05;1.8;;;1.8;;
48679;SDS011;34475;51.658;5.634;2023-04-02T02:59:00;1.8;;;1.8;;
48679;SDS011;34475;51.658;5.634;2023-04-02T03:00:01;1.8;;;1.8;;
48679;SDS011;34475;51.658;5.634;2023-04-02T03:01:00;1.8;;;1.8;;
48679;SDS011;34475;51.658;5.634;2023-04-02T03:02:01;1.8;;;1.8;;
48679;SDS011;34475;51.658;5.634;2023-04-02T03:03:04;1.8;;;1.8;;
48679;SDS011;34475;51.658;5.634;2023-04-02T03:04:00;1.9;;;1.9;;
48679;SDS011;34475;51.658;5.634;2023-04-02T03:05:03;1.9;;;1.9;;
48679;SDS011;34475;51.658;5.634;2023-04-02T03:06:05;1.9;;;1.9;;
48679;SDS011;34475;51.658;5.634;2023-04-02T03:07:02;1.9;;;1.9;;
48679;SDS011;34475;51.658;5.634;2023-04-02T03:08:02;1.9;;;1.9;;
48679;SDS011;34475;51.658;5.634;2023-04-02T03:09:02;1.9;;;1.9;;
48679;SDS011;34475;51.658;5.634;2023-04-02T03:10:08;1.9;;;1.9;;
48679;SDS011;34475;51.658;5.634;2023-04-02T03:11:05;1.9;;;1.9;;
48679;SDS011;34475;51.658;5.634;2023-04-02T03:13:04;1.9;;;1.9;;
48679;SDS011;34475;51.658;5.634;2023-04-02T03:14:11;1.9;;;1.9;;
48679;SDS011;34475;51.658;5.634;2023-04-02T03:15:12;1.9;;;1.9;;
48679;SDS011;34475;51.658;5.634;2023-04-02T03:16:11;1.9;;;1.9;;
48679;SDS011;34475;51.658;5.634;2023-04-02T03:17:09;1.9;;;1.9;;
48679;SDS011;34475;51.658;5.634;2023-04-02T03:18:06;1.9;;;1.9;;
48679;SDS011;34475;51.658;5.634;2023-04-02T03:19:06;1.9;;;1.9;;
48679;SDS011;34475;51.658;5.634;2023-04-02T03:20:06;1.9;;;1.9;;
48679;SDS011;34475;51.658;5.634;2023-04-02T03:21:08;1.9;;;1.9;;
48679;SDS011;34475;51.658;5.634;2023-04-02T03:24:03;1.7;;;1.7;;
48679;SDS011;34475;51.658;5.634;2023-04-02T03:26:11;1.7;;;1.7;;
48679;SDS011;34475;51.658;5.634;2023-04-02T03:27:05;1.7;;;1.7;;
48679;SDS011;34475;51.658;5.634;2023-04-02T03:28:03;1.7;;;1.7;;
48679;SDS011;34475;51.658;5.634;2023-04-02T03:29:05;1.7;;;1.7;;
48679;SDS011;34475;51.658;5.634;2023-04-02T03:31:05;1.7;;;1.7;;
48679;SDS011;34475;51.658;5.634;2023-04-02T03:32:06;1.7;;;1.7;;
48679;SDS011;34475;51.658;5.634;2023-04-02T03:33:03;1.7;;;1.7;;
48679;SDS011;34475;51.658;5.634;2023-04-02T03:34:06;1.7;;;1.7;;
48679;SDS011;34475;51.658;5.634;2023-04-02T03:35:28;1.7;;;1.7;;
48679;SDS011;34475;51.658;5.634;2023-04-02T03:37:09;1.7;;;1.7;;
48679;SDS011;34475;51.658;5.634;2023-04-02T03:38:05;1.7;;;1.7;;
48679;SDS011;34475;51.658;5.634;2023-04-02T03:39:20;1.7;;;1.7;;
48679;SDS011;34475;51.658;5.634;2023-04-02T03:40:13;1.7;;;1.7;;
48679;SDS011;34475;51.658;5.634;2023-04-02T03:41:04;1.7;;;1.7;;
48679;SDS011;34475;51.658;5.634;2023-04-02T03:42:09;1.7;;;1.7;;
48679;SDS011;34475;51.658;5.634;2023-04-02T03:43:11;1.7;;;1.7;;
48679;SDS011;34475;51.658;5.634;2023-04-02T03:44:13;1.9;;;1.9;;
48679;SDS011;34475;51.658;5.634;2023-04-02T03:45:14;1.9;;;1.9;;
48679;SDS011;34475;51.658;5.634;2023-04-02T03:46:10;1.9;;;1.9;;
48679;SDS011;34475;51.658;5.634;2023-04-02T03:47:08;1.9;;;1.9;;
48679;SDS011;34475;51.658;5.634;2023-04-02T03:48:06;1.9;;;1.9;;
48679;SDS011;34475;51.658;5.634;2023-04-02T03:49:06;1.9;;;1.9;;
48679;SDS011;34475;51.658;5.634;2023-04-02T03:50:17;1.9;;;1.9;;
48679;SDS011;34475;51.658;5.634;2023-04-02T03:51:13;1.9;;;1.9;;
48679;SDS011;34475;51.658;5.634;2023-04-02T03:52:08;1.9;;;1.9;;
48679;SDS011;34475;51.658;5.634;2023-04-02T03:53:02;1.9;;;1.9;;
48679;SDS011;34475;51.658;5.634;2023-04-02T03:54:01;1.9;;;1.9;;
48679;SDS011;34475;51.658;5.634;2023-04-02T03:55:02;1.9;;;1.9;;
48679;SDS011;34475;51.658;5.634;2023-04-02T03:56:01;1.9;;;1.9;;
48679;SDS011;34475;51.658;5.634;2023-04-02T03:57:00;1.9;;;1.9;;
48679;SDS011;34475;51.658;5.634;2023-04-02T03:58:08;1.9;;;1.9;;
48679;SDS011;34475;51.658;5.634;2023-04-02T03:59:06;1.9;;;1.9;;
48679;SDS011;34475;51.658;5.634;2023-04-02T04:03:11;1.9;;;1.9;;
48679;SDS011;34475;51.658;5.634;2023-04-02T04:04:04;2.3;;;2.3;;
48679;SDS011;34475;51.658;5.634;2023-04-02T04:05:02;2.3;;;2.3;;
48679;SDS011;34475;51.658;5.634;2023-04-02T04:06:05;2.3;;;2.3;;
48679;SDS011;34475;51.658;5.634;2023-04-02T04:07:00;2.3;;;2.3;;
48679;SDS011;34475;51.658;5.634;2023-04-02T04:08:05;2.3;;;2.3;;
48679;SDS011;34475;51.658;5.634;2023-04-02T04:09:11;2.3;;;2.3;;
48679;SDS011;34475;51.658;5.634;2023-04-02T04:10:02;2.3;;;2.3;;
48679;SDS011;34475;51.658;5.634;2023-04-02T04:11:06;2.3;;;2.3;;
48679;SDS011;34475;51.658;5.634;2023-04-02T04:12:08;2.3;;;2.3;;
48679;SDS011;34475;51.658;5.634;2023-04-02T04:13:08;2.3;;;2.3;;
48679;SDS011;34475;51.658;5.634;2023-04-02T04:14:18;2.3;;;2.3;;
48679;SDS011;34475;51.658;5.634;2023-04-02T04:15:08;2.3;;;2.3;;
48679;SDS011;34475;51.658;5.634;2023-04-02T04:16:06;2.3;;;2.3;;
48679;SDS011;34475;51.658;5.634;2023-04-02T04:17:10;2.3;;;2.3;;
48679;SDS011;34475;51.658;5.634;2023-04-02T04:18:04;2.3;;;2.3;;
48679;SDS011;34475;51.658;5.634;2023-04-02T04:19:11;2.3;;;2.3;;
48679;SDS011;34475;51.658;5.634;2023-04-02T04:20:11;2.3;;;2.3;;
48679;SDS011;34475;51.658;5.634;2023-04-02T04:21:01;2.3;;;2.3;;
48679;SDS011;34475;51.658;5.634;2023-04-02T04:22:10;2.3;;;2.3;;
48679;SDS011;34475;51.658;5.634;2023-04-02T04:23:10;2.3;;;2.3;;
48679;SDS011;34475;51.658;5.634;2023-04-02T04:24:03;2.0;;;2.0;;
48679;SDS011;34475;51.658;5.634;2023-04-02T04:25:04;2.0;;;2.0;;
48679;SDS011;34475;51.658;5.634;2023-04-02T04:27:14;2.0;;;2.0;;
48679;SDS011;34475;51.658;5.634;2023-04-02T04:28:12;2.0;;;2.0;;
48679;SDS011;34475;51.658;5.634;2023-04-02T04:30:06;2.0;;;2.0;;
48679;SDS011;34475;51.658;5.634;2023-04-02T04:31:20;2.0;;;2.0;;
48679;SDS011;34475;51.658;5.634;2023-04-02T04:32:14;2.0;;;2.0;;
48679;SDS011;34475;51.658;5.634;2023-04-02T04:33:05;2.0;;;2.0;;
48679;SDS011;34475;51.658;5.634;2023-04-02T04:34:06;2.0;;;2.0;;
48679;SDS011;34475;51.658;5.634;2023-04-02T04:36:02;2.0;;;2.0;;
48679;SDS011;34475;51.658;5.634;2023-04-02T04:37:02;2.0;;;2.0;;
48679;SDS011;34475;51.658;5.634;2023-04-02T04:38:05;2.0;;;2.0;;
48679;SDS011;34475;51.658;5.634;2023-04-02T04:39:07;2.0;;;2.0;;
48679;SDS011;34475;51.658;5.634;2023-04-02T04:40:09;2.0;;;2.0;;
48679;SDS011;34475;51.658;5.634;2023-04-02T04:41:03;2.0;;;2.0;;
48679;SDS011;34475;51.658;5.634;2023-04-02T04:42:02;2.0;;;2.0;;
48679;SDS011;34475;51.658;5.634;2023-04-02T04:43:03;2.0;;;2.0;;
48679;SDS011;34475;51.658;5.634;2023-04-02T04:44:06;2.0;;;2.0;;
48679;SDS011;34475;51.658;5.634;2023-04-02T04:45:07;2.0;;;2.0;;
48679;SDS011;34475;51.658;5.634;2023-04-02T04:46:05;2.0;;;2.0;;
48679;SDS011;34475;51.658;5.634;2023-04-02T04:47:03;2.0;;;2.0;;
48679;SDS011;34475;51.658;5.634;2023-04-02T04:48:18;2.0;;;2.0;;
48679;SDS011;34475;51.658;5.634;2023-04-02T04:49:07;2.0;;;2.0;;
48679;SDS011;34475;51.658;5.634;2023-04-02T04:50:06;2.0;;;2.0;;
48679;SDS011;34475;51.658;5.634;2023-04-02T04:51:01;2.0;;;2.0;;
48679;SDS011;34475;51.658;5.634;2023-04-02T04:53:05;2.0;;;2.0;;
48679;SDS011;34475;51.658;5.634;2023-04-02T04:54:00;2.0;;;2.0;;
48679;SDS011;34475;51.658;5.634;2023-04-02T04:55:00;2.0;;;2.0;;
48679;SDS011;34475;51.658;5.634;2023-04-02T04:56:12;2.0;;;2.0;;
48679;SDS011;34475;51.658;5.634;2023-04-02T04:57:02;2.0;;;2.0;;
48679;SDS011;34475;51.658;5.634;2023-04-02T04:58:17;2.0;;;2.0;;
48679;SDS011;34475;51.658;5.634;2023-04-02T04:59:01;2.0;;;2.0;;
48679;SDS011;34475;51.658;5.634;2023-04-02T05:00:11;2.0;;;2.0;;
48679;SDS011;34475;51.658;5.634;2023-04-02T05:02:13;2.0;;;2.0;;
48679;SDS011;34475;51.658;5.634;2023-04-02T05:03:08;2.0;;;2.0;;
48679;SDS011;34475;51.658;5.634;2023-04-02T05:04:15;2.2;;;2.2;;
48679;SDS011;34475;51.658;5.634;2023-04-02T05:05:01;2.2;;;2.2;;
48679;SDS011;34475;51.658;5.634;2023-04-02T05:06:07;2.2;;;2.2;;
48679;SDS011;34475;51.658;5.634;2023-04-02T05:08:09;2.2;;;2.2;;
48679;SDS011;34475;51.658;5.634;2023-04-02T05:09:06;2.2;;;2.2;;
48679;SDS011;34475;51.658;5.634;2023-04-02T05:10:03;2.2;;;2.2;;
48679;SDS011;34475;51.658;5.634;2023-04-02T05:11:04;2.2;;;2.2;;
48679;SDS011;34475;51.658;5.634;2023-04-02T05:12:05;2.2;;;2.2;;
48679;SDS011;34475;51.658;5.634;2023-04-02T05:13:01;2.2;;;2.2;;
48679;SDS011;34475;51.658;5.634;2023-04-02T05:14:04;2.2;;;2.2;;
48679;SDS011;34475;51.658;5.634;2023-04-02T05:15:08;2.2;;;2.2;;
48679;SDS011;34475;51.658;5.634;2023-04-02T05:16:12;2.2;;;2.2;;
48679;SDS011;34475;51.658;5.634;2023-04-02T05:17:07;2.2;;;2.2;;
48679;SDS011;34475;51.658;5.634;2023-04-02T05:20:10;2.2;;;2.2;;
48679;SDS011;34475;51.658;5.634;2023-04-02T05:21:07;2.2;;;2.2;;
48679;SDS011;34475;51.658;5.634;2023-04-02T05:22:04;2.2;;;2.2;;
48679;SDS011;34475;51.658;5.634;2023-04-02T05:23:36;2.2;;;2.2;;
48679;SDS011;34475;51.658;5.634;2023-04-02T05:25:15;1.9;;;1.9;;
48679;SDS011;34475;51.658;5.634;2023-04-02T05:26:12;1.9;;;1.9;;
48679;SDS011;34475;51.658;5.634;2023-04-02T05:27:04;1.9;;;1.9;;
48679;SDS011;34475;51.658;5.634;2023-04-02T05:28:11;1.9;;;1.9;;
48679;SDS011;34475;51.658;5.634;2023-04-02T05:29:01;1.9;;;1.9;;
48679;SDS011;34475;51.658;5.634;2023-04-02T05:30:08;1.9;;;1.9;;
48679;SDS011;34475;51.658;5.634;2023-04-02T05:31:04;1.9;;;1.9;;
48679;SDS011;34475;51.658;5.634;2023-04-02T05:32:12;1.9;;;1.9;;
48679;SDS011;34475;51.658;5.634;2023-04-02T05:34:00;1.9;;;1.9;;
48679;SDS011;34475;51.658;5.634;2023-04-02T05:35:04;1.9;;;1.9;;
48679;SDS011;34475;51.658;5.634;2023-04-02T05:36:04;1.9;;;1.9;;
48679;SDS011;34475;51.658;5.634;2023-04-02T05:37:00;1.9;;;1.9;;
48679;SDS011;34475;51.658;5.634;2023-04-02T05:38:01;1.9;;;1.9;;
48679;SDS011;34475;51.658;5.634;2023-04-02T05:39:00;1.9;;;1.9;;
48679;SDS011;34475;51.658;5.634;2023-04-02T05:40:13;1.9;;;1.9;;
48679;SDS011;34475;51.658;5.634;2023-04-02T05:41:14;1.9;;;1.9;;
48679;SDS011;34475;51.658;5.634;2023-04-02T05:42:06;1.9;;;1.9;;
48679;SDS011;34475;51.658;5.634;2023-04-02T05:43:02;1.9;;;1.9;;
48679;SDS011;34475;51.658;5.634;2023-04-02T05:44:07;2.1;;;2.1;;
48679;SDS011;34475;51.658;5.634;2023-04-02T05:46:04;2.1;;;2.1;;
48679;SDS011;34475;51.658;5.634;2023-04-02T05:47:11;2.1;;;2.1;;
48679;SDS011;34475;51.658;5.634;2023-04-02T05:48:04;2.1;;;2.1;;
48679;SDS011;34475;51.658;5.634;2023-04-02T05:49:04;2.1;;;2.1;;
48679;SDS011;34475;51.658;5.634;2023-04-02T05:51:04;2.1;;;2.1;;
48679;SDS011;34475;51.658;5.634;2023-04-02T05:52:02;2.1;;;2.1;;
48679;SDS011;34475;51.658;5.634;2023-04-02T05:54:04;2.1;;;2.1;;
48679;SDS011;34475;51.658;5.634;2023-04-02T05:56:14;2.1;;;2.1;;
48679;SDS011;34475;51.658;5.634;2023-04-02T05:57:03;2.1;;;2.1;;
48679;SDS011;34475;51.658;5.634;2023-04-02T05:58:17;2.1;;;2.1;;
48679;SDS011;34475;51.658;5.634;2023-04-02T05:59:11;2.1;;;2.1;;
48679;SDS011;34475;51.658;5.634;2023-04-02T06:00:06;2.1;;;2.1;;
48679;SDS011;34475;51.658;5.634;2023-04-02T06:01:04;2.1;;;2.1;;
48679;SDS011;34475;51.658;5.634;2023-04-02T06:03:12;2.3;;;2.3;;
48679;SDS011;34475;51.658;5.634;2023-04-02T06:04:13;2.3;;;2.3;;
48679;SDS011;34475;51.658;5.634;2023-04-02T06:05:12;2.3;;;2.3;;
48679;SDS011;34475;51.658;5.634;2023-04-02T06:06:04;2.3;;;2.3;;
48679;SDS011;34475;51.658;5.634;2023-04-02T06:08:07;2.3;;;2.3;;
48679;SDS011;34475;51.658;5.634;2023-04-02T06:09:08;2.3;;;2.3;;
48679;SDS011;34475;51.658;5.634;2023-04-02T06:10:07;2.3;;;2.3;;
48679;SDS011;34475;51.658;5.634;2023-04-02T06:12:12;2.3;;;2.3;;
48679;SDS011;34475;51.658;5.634;2023-04-02T06:13:05;2.3;;;2.3;;
48679;SDS011;34475;51.658;5.634;2023-04-02T06:14:02;2.3;;;2.3;;
48679;SDS011;34475;51.658;5.634;2023-04-02T06:15:00;2.3;;;2.3;;
48679;SDS011;34475;51.658;5.634;2023-04-02T06:16:01;2.3;;;2.3;;
48679;SDS011;34475;51.658;5.634;2023-04-02T06:17:00;2.3;;;2.3;;
48679;SDS011;34475;51.658;5.634;2023-04-02T06:18:07;2.3;;;2.3;;
48679;SDS011;34475;51.658;5.634;2023-04-02T06:19:00;2.3;;;2.3;;
48679;SDS011;34475;51.658;5.634;2023-04-02T06:20:02;2.3;;;2.3;;
48679;SDS011;34475;51.658;5.634;2023-04-02T06:21:01;2.3;;;2.3;;
48679;SDS011;34475;51.658;5.634;2023-04-02T06:22:14;2.3;;;2.3;;
48679;SDS011;34475;51.658;5.634;2023-04-02T06:23:02;2.0;;;2.0;;
48679;SDS011;34475;51.658;5.634;2023-04-02T06:24:02;2.0;;;2.0;;
48679;SDS011;34475;51.658;5.634;2023-04-02T06:25:07;2.0;;;2.0;;
48679;SDS011;34475;51.658;5.634;2023-04-02T06:26:15;2.0;;;2.0;;
48679;SDS011;34475;51.658;5.634;2023-04-02T06:27:05;2.0;;;2.0;;
48679;SDS011;34475;51.658;5.634;2023-04-02T06:28:03;2.0;;;2.0;;
48679;SDS011;34475;51.658;5.634;2023-04-02T06:29:05;2.0;;;2.0;;
48679;SDS011;34475;51.658;5.634;2023-04-02T06:30:03;2.0;;;2.0;;
48679;SDS011;34475;51.658;5.634;2023-04-02T06:31:07;2.0;;;2.0;;
48679;SDS011;34475;51.658;5.634;2023-04-02T06:32:01;2.0;;;2.0;;
48679;SDS011;34475;51.658;5.634;2023-04-02T06:33:00;2.0;;;2.0;;
48679;SDS011;34475;51.658;5.634;2023-04-02T06:34:00;2.0;;;2.0;;
48679;SDS011;34475;51.658;5.634;2023-04-02T06:35:00;2.0;;;2.0;;
48679;SDS011;34475;51.658;5.634;2023-04-02T06:36:00;2.0;;;2.0;;
48679;SDS011;34475;51.658;5.634;2023-04-02T06:37:13;2.0;;;2.0;;
48679;SDS011;34475;51.658;5.634;2023-04-02T06:38:03;2.0;;;2.0;;
48679;SDS011;34475;51.658;5.634;2023-04-02T06:39:04;2.0;;;2.0;;
48679;SDS011;34475;51.658;5.634;2023-04-02T06:40:02;2.0;;;2.0;;
48679;SDS011;34475;51.658;5.634;2023-04-02T06:41:04;2.0;;;2.0;;
48679;SDS011;34475;51.658;5.634;2023-04-02T06:42:12;2.0;;;2.0;;
48679;SDS011;34475;51.658;5.634;2023-04-02T06:43:04;2.2;;;2.2;;
48679;SDS011;34475;51.658;5.634;2023-04-02T06:44:04;2.2;;;2.2;;
48679;SDS011;34475;51.658;5.634;2023-04-02T06:45:00;2.2;;;2.2;;
48679;SDS011;34475;51.658;5.634;2023-04-02T06:46:06;2.2;;;2.2;;
48679;SDS011;34475;51.658;5.634;2023-04-02T06:47:05;2.2;;;2.2;;
48679;SDS011;34475;51.658;5.634;2023-04-02T06:48:01;2.2;;;2.2;;
48679;SDS011;34475;51.658;5.634;2023-04-02T06:49:06;2.2;;;2.2;;
48679;SDS011;34475;51.658;5.634;2023-04-02T06:51:04;2.2;;;2.2;;
48679;SDS011;34475;51.658;5.634;2023-04-02T06:52:01;2.2;;;2.2;;
48679;SDS011;34475;51.658;5.634;2023-04-02T06:53:05;2.2;;;2.2;;
48679;SDS011;34475;51.658;5.634;2023-04-02T06:54:00;2.2;;;2.2;;
48679;SDS011;34475;51.658;5.634;2023-04-02T06:55:04;2.2;;;2.2;;
48679;SDS011;34475;51.658;5.634;2023-04-02T06:56:06;2.2;;;2.2;;
48679;SDS011;34475;51.658;5.634;2023-04-02T06:57:00;2.2;;;2.2;;
48679;SDS011;34475;51.658;5.634;2023-04-02T06:58:00;2.2;;;2.2;;
48679;SDS011;34475;51.658;5.634;2023-04-02T06:59:03;2.2;;;2.2;;
48679;SDS011;34475;51.658;5.634;2023-04-02T07:00:00;2.2;;;2.2;;
48679;SDS011;34475;51.658;5.634;2023-04-02T07:01:00;2.2;;;2.2;;
48679;SDS011;34475;51.658;5.634;2023-04-02T07:03:04;2.3;;;2.3;;
48679;SDS011;34475;51.658;5.634;2023-04-02T07:04:00;2.3;;;2.3;;
48679;SDS011;34475;51.658;5.634;2023-04-02T07:05:05;2.3;;;2.3;;
48679;SDS011;34475;51.658;5.634;2023-04-02T07:06:01;2.3;;;2.3;;
48679;SDS011;34475;51.658;5.634;2023-04-02T07:07:00;2.3;;;2.3;;
48679;SDS011;34475;51.658;5.634;2023-04-02T07:08:00;2.3;;;2.3;;